Terminal Aerodrome Forecast
Issued by NWS Wichita, KS

Home | Current Version | Previous Version | Text Only | Print | Product List | Glossary Off
Versions: 1 2 3 4 5 6 7 8 9 10 11 12 13 14 15 16 17 18 19 20

000
FTUS43 KICT 252335
TAFICT
TAF
KICT 252335Z 2600/2624 02009KT P6SM SCT035
     FM260600 07006KT P6SM VCTS BKN030CB
     FM261200 VRB04KT P6SM SCT020 BKN100
     FM261600 14008KT P6SM FEW035=

USA.gov is the U.S. government's official web portal to all federal, state and local government web resources and services.